Time;durP1;ratioP1;P1;durP2;ratioP2;P2;SDS_P1;SDS_P2;PMS_P1;PMS_P2;Temp;Humidity;BMP_temperature;BMP_pressure;BME280_temperature;BME280_humidity;BME280_pressure;Samples;Min_cycle;Max_cycle;Signal;HPM_P1;HPM_P2
2022/04/03 00:01:28;;;;;;;3.17;1.40;;;;;;;-0.28;100.00;101972.56;4957459;28;20133;-80
2022/04/03 00:03:54;;;;;;;3.55;1.45;;;;;;;-0.34;100.00;101969.94;4974811;28;20031;-79
2022/04/03 00:06:21;;;;;;;6.10;1.90;;;;;;;-0.37;100.00;101976.25;4977181;28;20035;-79
2022/04/03 00:08:47;;;;;;;3.10;1.48;;;;;;;-0.43;100.00;101970.06;4969429;28;20047;-79
2022/04/03 00:11:12;;;;;;;3.10;1.77;;;;;;;-0.58;100.00;101945.19;4964522;28;20095;-79
2022/04/03 00:13:38;;;;;;;4.95;1.63;;;;;;;-0.50;100.00;101974.66;4971702;28;20038;-79
2022/04/03 00:16:05;;;;;;;5.15;1.88;;;;;;;-0.44;100.00;101981.78;4961326;28;20723;-79
2022/04/03 00:18:32;;;;;;;4.82;1.92;;;;;;;-0.37;100.00;101975.38;4969878;28;20032;-80
2022/04/03 00:20:58;;;;;;;3.55;1.90;;;;;;;-0.38;100.00;101974.50;4967901;28;20053;-80
2022/04/03 00:23:24;;;;;;;7.38;1.98;;;;;;;-0.41;100.00;101961.09;4968529;28;20031;-80
2022/04/03 00:25:51;;;;;;;7.47;1.92;;;;;;;-0.36;100.00;101969.09;4949845;28;20038;-80
2022/04/03 00:28:17;;;;;;;3.55;1.58;;;;;;;-0.34;100.00;101958.28;4955916;28;20054;-80
2022/04/03 00:30:42;;;;;;;3.80;2.13;;;;;;;-0.40;100.00;101968.22;4954050;28;20114;-80
2022/04/03 00:33:08;;;;;;;8.88;2.30;;;;;;;-0.40;100.00;101970.91;4969966;28;20101;-80
2022/04/03 00:35:35;;;;;;;3.47;2.00;;;;;;;-0.47;100.00;101968.38;4968753;28;20043;-80
2022/04/03 00:38:00;;;;;;;3.35;1.60;;;;;;;-0.60;100.00;101960.47;4957549;28;20046;-79
2022/04/03 00:40:26;;;;;;;3.75;1.70;;;;;;;-0.62;100.00;101951.53;4969729;28;20042;-80
2022/04/03 00:42:52;;;;;;;3.50;1.50;;;;;;;-0.62;100.00;101972.19;4972136;28;20079;-80
2022/04/03 00:45:18;;;;;;;2.70;1.85;;;;;;;-0.71;100.00;101967.78;4971805;28;20035;-80
2022/04/03 00:47:43;;;;;;;3.25;2.08;;;;;;;-0.80;100.00;101976.00;4965730;28;20093;-80
2022/04/03 00:50:10;;;;;;;7.28;1.98;;;;;;;-0.83;100.00;101971.56;4975694;28;20038;-78
2022/04/03 00:52:36;;;;;;;4.07;1.85;;;;;;;-0.76;100.00;101972.34;4973363;28;20464;-79
2022/04/03 00:55:03;;;;;;;6.10;2.42;;;;;;;-0.85;100.00;101969.78;4952811;28;20130;-79
2022/04/03 00:57:28;;;;;;;3.28;1.92;;;;;;;-0.88;100.00;101967.16;4962389;28;20042;-79
2022/04/03 00:59:54;;;;;;;4.15;1.80;;;;;;;-0.87;100.00;101964.47;4969106;28;20038;-79
2022/04/03 01:02:20;;;;;;;4.22;1.70;;;;;;;-0.94;100.00;101957.38;4970536;28;20034;-80
2022/04/03 01:04:46;;;;;;;5.03;1.83;;;;;;;-0.89;100.00;101966.25;4957870;28;20054;-80
2022/04/03 01:07:13;;;;;;;6.30;2.13;;;;;;;-0.95;100.00;101964.56;4957131;28;20035;-80
2022/04/03 01:09:38;;;;;;;2.72;1.92;;;;;;;-0.96;100.00;101969.94;4964521;28;20546;-79
2022/04/03 01:12:05;;;;;;;5.47;2.00;;;;;;;-0.91;100.00;101970.78;4969243;28;20065;-79
2022/04/03 01:14:42;;;;;;;4.75;1.92;;;;;;;-0.93;100.00;101960.03;4951139;29;20039;-79
2022/04/03 01:17:10;;;;;;;3.70;2.00;;;;;;;-0.91;100.00;101969.88;4965382;28;20055;-79
2022/04/03 01:19:37;;;;;;;5.78;2.15;;;;;;;-0.94;100.00;101957.38;4965688;28;20034;-79
2022/04/03 01:22:03;;;;;;;7.20;2.00;;;;;;;-0.87;100.00;101969.84;4974565;28;20089;-79
2022/04/03 01:24:30;;;;;;;4.50;1.95;;;;;;;-0.91;100.00;101972.56;4962998;28;20031;-79
2022/04/03 01:26:55;;;;;;;3.85;2.22;;;;;;;-0.95;100.00;101959.19;4962917;28;20089;-79
2022/04/03 01:29:22;;;;;;;7.15;1.60;;;;;;;-0.95;100.00;101969.03;4968105;28;20039;-79
2022/04/03 01:31:47;;;;;;;4.88;1.73;;;;;;;-1.02;100.00;101970.03;4949735;29;20484;-79
2022/04/03 01:34:14;;;;;;;6.65;2.10;;;;;;;-1.09;100.00;101965.66;4966137;28;20070;-79
2022/04/03 01:36:41;;;;;;;5.20;2.30;;;;;;;-1.10;100.00;101970.09;4975935;28;20030;-81
2022/04/03 01:39:06;;;;;;;9.93;2.35;;;;;;;-1.08;100.00;101968.31;4966786;28;20042;-80
2022/04/03 01:41:32;;;;;;;4.18;2.15;;;;;;;-1.16;100.00;101967.53;4969730;28;20027;-80
2022/04/03 01:43:57;;;;;;;6.15;2.20;;;;;;;-1.24;100.00;101970.28;4968684;28;20042;-80
2022/04/03 01:46:22;;;;;;;5.18;1.90;;;;;;;-1.13;100.00;101967.50;4958915;28;20129;-81
2022/04/03 01:48:48;;;;;;;4.00;1.65;;;;;;;-1.19;100.00;101963.06;4964057;28;20035;-80
2022/04/03 01:51:13;;;;;;;5.90;1.63;;;;;;;-1.21;100.00;101964.88;4955597;28;20413;-81
2022/04/03 01:53:39;;;;;;;3.13;1.70;;;;;;;-1.20;100.00;101963.97;4960973;28;20131;-81
2022/04/03 01:56:06;;;;;;;3.58;1.90;;;;;;;-1.19;100.00;101963.06;4975886;28;20041;-81
2022/04/03 01:58:33;;;;;;;3.47;2.10;;;;;;;-1.24;100.00;101967.59;4971831;28;20101;-80
2022/04/03 02:01:00;;;;;;;5.13;1.88;;;;;;;-1.19;100.00;101957.69;4948998;29;20031;-80
2022/04/03 02:03:26;;;;;;;5.40;2.00;;;;;;;-1.23;100.00;101964.03;4967619;28;20110;-80
2022/04/03 02:05:52;;;;;;;6.22;2.75;;;;;;;-1.28;100.00;101962.28;4970216;28;20117;-81
2022/04/03 02:08:17;;;;;;;3.35;2.25;;;;;;;-1.34;100.00;101969.50;4952894;28;20117;-81
2022/04/03 02:10:43;;;;;;;4.57;2.17;;;;;;;-1.30;100.00;101956.94;4968236;28;20085;-80
2022/04/03 02:13:08;;;;;;;4.28;2.47;;;;;;;-1.37;100.00;101965.97;4956895;28;20034;-80
2022/04/03 02:15:34;;;;;;;4.35;2.50;;;;;;;-1.36;100.00;101962.38;4966722;28;20107;-80
2022/04/03 02:18:00;;;;;;;2.45;1.85;;;;;;;-1.37;100.00;101971.34;4950919;29;20122;-80
2022/04/03 02:20:26;;;;;;;6.13;2.38;;;;;;;-1.43;100.00;101950.81;4967811;28;20116;-80
2022/04/03 02:22:51;;;;;;;5.75;2.35;;;;;;;-1.43;100.00;101958.84;4955315;28;20036;-80
2022/04/03 02:25:16;;;;;;;4.55;2.30;;;;;;;-1.36;100.00;101963.28;4951121;29;20157;-80
2022/04/03 02:27:48;;;;;;;5.10;2.17;;;;;;;-1.45;100.00;101955.31;4965534;28;20033;-80
2022/04/03 02:30:14;;;;;;;3.60;2.60;;;;;;;-1.36;100.00;101968.66;4966953;28;20058;-79
2022/04/03 02:32:40;;;;;;;6.80;2.92;;;;;;;-1.37;100.00;101955.22;4956838;28;20031;-80
2022/04/03 02:35:10;;;;;;;5.95;2.25;;;;;;;-1.40;100.00;101964.19;4955241;29;20168;-80
2022/04/03 02:37:36;;;;;;;6.15;2.75;;;;;;;-1.40;100.00;101974.06;4954660;28;20471;-80
2022/04/03 02:40:08;;;;;;;4.78;2.38;;;;;;;-1.48;100.00;101958.94;4970835;28;20122;-80
2022/04/03 02:42:33;;;;;;;11.50;2.78;;;;;;;-1.47;100.00;101959.81;4974190;28;20030;-80
2022/04/03 02:44:59;;;;;;;4.13;2.33;;;;;;;-1.56;100.00;101946.47;4964814;28;20035;-80
2022/04/03 02:47:25;;;;;;;8.98;2.67;;;;;;;-1.49;100.00;101950.91;4974323;28;20039;-80
2022/04/03 02:49:51;;;;;;;4.32;2.78;;;;;;;-1.56;100.00;101960.81;4973391;28;20050;-80
2022/04/03 02:52:20;;;;;;;9.90;2.60;;;;;;;-1.62;100.00;101954.59;4977658;28;20038;-79
2022/04/03 02:54:47;;;;;;;6.78;2.60;;;;;;;-1.67;100.00;101952.88;4974343;28;20043;-80
2022/04/03 02:57:13;;;;;;;5.28;2.63;;;;;;;-1.59;100.00;101950.09;4970996;28;20054;-80
2022/04/03 02:59:38;;;;;;;7.60;2.38;;;;;;;-1.63;100.00;101961.78;4947266;29;20086;-80
2022/04/03 03:02:04;;;;;;;16.75;3.33;;;;;;;-1.67;100.00;101963.59;4958009;28;20486;-80
2022/04/03 03:04:31;;;;;;;5.15;2.83;;;;;;;-1.64;100.00;101959.09;4956880;28;20039;-79
2022/04/03 03:06:57;;;;;;;9.30;3.05;;;;;;;-1.68;100.00;101964.50;4967021;28;20041;-79
2022/04/03 03:09:22;;;;;;;8.05;3.15;;;;;;;-1.61;100.00;101967.13;4969199;28;20035;-80
2022/04/03 03:11:48;;;;;;;9.23;3.45;;;;;;;-1.68;100.00;101959.13;4973745;28;20042;-79
2022/04/03 03:14:13;;;;;;;7.35;3.33;;;;;;;-1.69;100.00;101961.84;4970709;28;20039;-80
2022/04/03 03:16:39;;;;;;;6.97;3.25;;;;;;;-1.69;100.00;101965.44;4977996;28;20054;-80
2022/04/03 03:19:04;;;;;;;7.20;3.40;;;;;;;-1.71;100.00;101966.34;4948536;28;20535;-80
2022/04/03 03:21:30;;;;;;;4.63;2.78;;;;;;;-1.71;100.00;101969.03;4976126;28;20078;-80
2022/04/03 03:23:55;;;;;;;7.57;3.38;;;;;;;-1.77;100.00;101969.97;4976949;28;20121;-80
2022/04/03 03:26:21;;;;;;;6.85;3.25;;;;;;;-1.76;100.00;101966.38;4966447;28;20084;-79
2022/04/03 03:28:46;;;;;;;6.50;3.45;;;;;;;-1.74;100.00;101974.41;4977972;28;20061;-79
2022/04/03 03:31:12;;;;;;;7.80;3.30;;;;;;;-1.73;100.00;101970.84;4962877;28;20030;-79
2022/04/03 03:33:37;;;;;;;7.40;3.67;;;;;;;-1.77;100.00;101966.38;4974619;28;20030;-79
2022/04/03 03:36:03;;;;;;;10.82;3.83;;;;;;;-1.80;100.00;101969.09;4960177;28;20374;-79
2022/04/03 03:38:28;;;;;;;9.90;3.45;;;;;;;-1.81;100.00;101978.97;4971008;28;20043;-79
2022/04/03 03:40:54;;;;;;;7.38;3.67;;;;;;;-1.81;100.00;101967.34;4965748;28;20093;-79
2022/04/03 03:43:19;;;;;;;5.68;3.10;;;;;;;-1.90;100.00;101962.97;4968457;28;20037;-80
2022/04/03 03:45:45;;;;;;;6.13;3.67;;;;;;;-1.88;100.00;101974.56;4958683;28;20034;-80
2022/04/03 03:48:10;;;;;;;8.55;3.38;;;;;;;-1.87;100.00;101977.22;4963033;28;20162;-80
2022/04/03 03:50:36;;;;;;;6.78;3.53;;;;;;;-1.80;100.00;101979.84;4979823;28;20049;-80
2022/04/03 03:53:02;;;;;;;11.20;4.07;;;;;;;-1.86;100.00;101976.31;4992497;28;20026;-80
2022/04/03 03:55:27;;;;;;;13.82;3.70;;;;;;;-1.89;100.00;101978.13;4980118;28;20041;-80
2022/04/03 03:57:53;;;;;;;6.22;3.50;;;;;;;-1.92;100.00;101972.78;4986606;28;20426;-78
2022/04/03 04:00:19;;;;;;;5.65;3.70;;;;;;;-1.93;100.00;101976.41;4993450;28;20041;-80
2022/04/03 04:02:44;;;;;;;11.93;3.90;;;;;;;-1.93;100.00;101982.66;4973441;28;20064;-79
2022/04/03 04:05:10;;;;;;;10.25;3.70;;;;;;;-1.94;100.00;101979.97;4974999;28;20138;-80
2022/04/03 04:07:43;;;;;;;6.07;3.42;;;;;;;-1.89;100.00;101986.19;4956278;28;20062;-79
2022/04/03 04:10:13;;;;;;;12.10;3.97;;;;;;;-1.97;100.00;101980.88;4965246;28;20038;-80
2022/04/03 04:12:40;;;;;;;13.98;4.45;;;;;;;-1.94;100.00;101975.50;4955940;28;20031;-79
2022/04/03 04:15:07;;;;;;;8.60;3.40;;;;;;;-1.89;100.00;101980.81;4953342;28;20438;-80
2022/04/03 04:17:38;;;;;;;13.38;3.78;;;;;;;-1.97;100.00;101974.63;4967674;28;20043;-79
2022/04/03 04:20:15;;;;;;;6.97;4.15;;;;;;;-1.95;100.00;101988.91;4988089;28;20034;-79
2022/04/03 04:22:42;;;;;;;11.10;3.67;;;;;;;-1.97;100.00;101988.06;4992806;28;20030;-80
2022/04/03 04:25:08;;;;;;;10.52;4.03;;;;;;;-1.97;100.00;101975.50;4979720;28;20049;-80
2022/04/03 04:27:33;;;;;;;10.40;4.00;;;;;;;-1.97;100.00;101990.75;4995996;28;20053;-79
2022/04/03 04:29:59;;;;;;;14.93;4.15;;;;;;;-2.03;100.00;101979.16;4966100;28;20042;-80
2022/04/03 04:32:26;;;;;;;16.35;5.30;;;;;;;-1.94;100.00;101988.91;4963051;28;20037;-80
2022/04/03 04:34:52;;;;;;;12.15;4.75;;;;;;;-1.93;100.00;101985.34;4979164;28;20038;-80
2022/04/03 04:37:18;;;;;;;11.23;4.57;;;;;;;-1.98;100.00;101988.94;4989802;28;20034;-79
2022/04/03 04:39:44;;;;;;;11.85;4.28;;;;;;;-2.01;100.00;101989.00;4990494;28;20475;-80
2022/04/03 04:42:11;;;;;;;14.10;4.82;;;;;;;-2.07;100.00;101985.44;4989107;28;20110;-80
2022/04/03 04:44:36;;;;;;;8.35;4.55;;;;;;;-2.09;100.00;101992.63;4986536;28;20030;-80
2022/04/03 04:47:02;;;;;;;9.63;4.97;;;;;;;-2.12;100.00;101991.75;4962814;28;20037;-79
2022/04/03 04:49:28;;;;;;;11.15;4.93;;;;;;;-2.12;100.00;101989.94;4978811;28;20038;-79
2022/04/03 04:51:53;;;;;;;15.85;6.22;;;;;;;-2.15;100.00;101989.09;4984249;28;20405;-79
2022/04/03 04:54:19;;;;;;;14.15;5.82;;;;;;;-2.17;100.00;101997.16;4990858;28;20110;-80
2022/04/03 04:56:45;;;;;;;10.65;5.50;;;;;;;-2.09;100.00;102008.72;4975513;28;20027;-79
2022/04/03 04:59:10;;;;;;;11.63;5.70;;;;;;;-2.09;100.00;102008.72;4983674;28;20509;-79
2022/04/03 05:01:36;;;;;;;9.93;5.40;;;;;;;-2.14;100.00;102006.97;4984947;28;20045;-79
2022/04/03 05:04:02;;;;;;;12.02;4.70;;;;;;;-2.23;100.00;102010.59;4978546;28;20568;-80
2022/04/03 05:06:28;;;;;;;9.98;5.15;;;;;;;-2.26;100.00;102021.38;4965968;28;20046;-79
2022/04/03 05:08:54;;;;;;;15.05;5.90;;;;;;;-2.31;100.00;102020.50;4976684;28;20096;-79
2022/04/03 05:11:20;;;;;;;10.30;5.82;;;;;;;-2.46;100.00;102018.81;4962182;28;20026;-80
2022/04/03 05:13:47;;;;;;;16.33;6.20;;;;;;;-2.36;100.00;102020.56;4987666;28;20446;-80
2022/04/03 05:16:13;;;;;;;16.65;5.93;;;;;;;-2.28;100.00;102020.47;4958782;28;20039;-80
2022/04/03 05:18:39;;;;;;;15.23;6.10;;;;;;;-2.33;100.00;102030.34;4956871;28;20050;-80
2022/04/03 05:21:06;;;;;;;11.30;5.95;;;;;;;-2.34;100.00;102026.78;4973058;28;20027;-79
2022/04/03 05:23:31;;;;;;;15.88;5.50;;;;;;;-2.27;100.00;102031.19;4958646;28;20474;-79
2022/04/03 05:25:57;;;;;;;13.40;6.05;;;;;;;-2.32;100.00;102043.75;4976210;28;20028;-80
2022/04/03 05:28:23;;;;;;;13.10;6.15;;;;;;;-2.32;100.00;102021.41;4958578;28;20030;-79
2022/04/03 05:30:49;;;;;;;15.60;6.43;;;;;;;-2.19;100.00;102027.59;4963584;28;20490;-80
2022/04/03 05:33:15;;;;;;;10.25;5.70;;;;;;;-2.11;100.00;102036.47;4971763;28;20041;-80
2022/04/03 05:35:42;;;;;;;15.00;5.68;;;;;;;-2.07;100.00;102025.69;4948518;29;20073;-79
2022/04/03 05:38:07;;;;;;;22.00;7.07;;;;;;;-2.07;100.00;102030.16;4966475;28;20046;-79
2022/04/03 05:40:33;;;;;;;10.95;6.30;;;;;;;-1.89;100.00;102032.69;4965524;28;20031;-80
2022/04/03 05:42:59;;;;;;;14.15;6.97;;;;;;;-1.81;100.00;102040.69;4976467;28;20050;-81
2022/04/03 05:45:25;;;;;;;20.27;6.35;;;;;;;-1.85;100.00;102033.59;4957618;28;20050;-81
2022/04/03 05:47:51;;;;;;;17.73;6.85;;;;;;;-1.83;100.00;102036.25;4972089;28;20034;-81
2022/04/03 05:50:16;;;;;;;13.98;6.50;;;;;;;-1.88;100.00;102026.44;4972942;28;20037;-81
2022/04/03 05:52:50;;;;;;;19.88;7.45;;;;;;;-1.64;100.00;102028.91;4959411;28;20058;-82
2022/04/03 05:55:17;;;;;;;16.67;7.10;;;;;;;-1.52;100.00;102044.91;4974957;28;20066;-81
2022/04/03 05:57:45;;;;;;;22.30;6.97;;;;;;;-1.63;100.00;102044.13;4970246;28;20027;-81
2022/04/03 06:00:15;;;;;;;19.88;7.22;;;;;;;-1.57;100.00;102044.97;4972491;28;20027;-81
2022/04/03 06:02:51;;;;;;;17.60;7.18;;;;;;;-1.42;100.00;102051.09;4986227;28;20051;-80
2022/04/03 06:05:18;;;;;;;21.00;8.32;;;;;;;-1.43;100.00;102055.56;4971090;28;20453;-81
2022/04/03 06:07:44;;;;;;;19.55;8.55;;;;;;;-1.26;100.00;102055.41;4982892;28;20031;-80
2022/04/03 06:10:16;;;;;;;29.35;10.15;;;;;;;-1.19;100.00;102054.41;4969348;28;20043;-78
2022/04/03 06:12:56;;;;;;;21.63;10.02;;;;;;;-1.12;100.00;102053.44;4950283;28;20049;-79
2022/04/03 06:15:23;;;;;;;19.67;10.52;;;;;;;-0.74;100.00;102056.56;4989057;28;20105;-79
2022/04/03 06:17:50;;;;;;;31.35;11.30;;;;;;;-0.81;100.00;102053.06;4970792;28;20030;-80
2022/04/03 06:20:17;;;;;;;27.70;10.65;;;;;;;-0.62;100.00;102064.50;4961522;28;20513;-80
2022/04/03 06:22:43;;;;;;;27.65;11.50;;;;;;;-0.25;100.00;102055.91;4960145;28;20432;-80
2022/04/03 06:25:09;;;;;;;40.03;12.95;;;;;;;-0.09;100.00;102056.56;4970020;28;20034;-78
2022/04/03 06:27:34;;;;;;;25.52;12.30;;;;;;;0.11;100.00;102049.97;4959295;28;20031;-79
2022/04/03 06:30:00;;;;;;;36.80;13.85;;;;;;;0.07;100.00;102056.34;4959909;28;20045;-79
2022/04/03 06:32:26;;;;;;;37.53;15.10;;;;;;;0.23;100.00;102051.56;4946633;28;20027;-79
2022/04/03 06:34:51;;;;;;;39.08;16.25;;;;;;;0.50;100.00;102061.88;4969641;28;20031;-79
2022/04/03 06:37:17;;;;;;;42.25;18.10;;;;;;;0.49;100.00;102061.91;4955301;28;20127;-79
2022/04/03 06:39:42;;;;;;;44.90;19.35;;;;;;;0.45;100.00;102062.88;4973711;28;20066;-80
2022/04/03 06:42:08;;;;;;;65.50;21.25;;;;;;;0.35;100.00;102056.75;4966373;28;20118;-79
2022/04/03 06:44:35;;;;;;;58.30;22.73;;;;;;;0.49;100.00;102051.13;4971020;28;20364;-79
2022/04/03 06:47:00;;;;;;;66.50;24.27;;;;;;;0.73;100.00;102045.28;4968176;28;20031;-79
2022/04/03 06:49:29;;;;;;;67.05;24.70;;;;;;;1.00;100.00;102047.47;4976698;28;20066;-79
2022/04/03 06:51:58;;;;;;;55.85;22.65;;;;;;;1.36;100.00;102053.03;4974479;28;20035;-78
2022/04/03 06:54:23;;;;;;;60.10;21.52;;;;;;;0.95;100.00;102055.63;4954223;28;20082;-80
2022/04/03 06:56:48;;;;;;;64.97;22.83;;;;;;;1.00;100.00;102055.56;4969588;28;20027;-80
2022/04/03 06:59:14;;;;;;;53.40;21.30;;;;;;;1.05;100.00;102049.16;4970878;28;20031;-80
2022/04/03 07:01:40;;;;;;;73.82;21.10;;;;;;;1.32;100.00;102052.22;4970782;28;20033;-80
2022/04/03 07:04:05;;;;;;;44.33;19.42;;;;;;;1.31;100.00;102046.84;4956660;28;20395;-80
2022/04/03 07:06:31;;;;;;;49.30;17.63;;;;;;;1.18;100.00;102047.13;4967145;28;20125;-79
2022/04/03 07:08:56;;;;;;;46.40;17.80;;;;;;;1.10;100.00;102051.78;4967827;28;20047;-79
2022/04/03 07:11:22;;;;;;;46.28;16.30;;;;;;;1.19;100.00;102059.66;4971289;28;20034;-79
2022/04/03 07:13:48;;;;;;;36.17;15.75;;;;;;;1.33;100.00;102056.69;4958428;28;20034;-80
2022/04/03 07:16:14;;;;;;;33.38;14.77;;;;;;;1.35;100.00;102060.25;4960815;28;20063;-80
2022/04/03 07:18:40;;;;;;;36.85;16.58;;;;;;;1.40;100.00;102060.16;4963207;28;20035;-79
2022/04/03 07:21:05;;;;;;;36.88;15.57;;;;;;;1.48;100.00;102063.56;4954479;28;20047;-80
2022/04/03 07:23:31;;;;;;;38.20;15.45;;;;;;;1.54;100.00;102060.75;4968220;28;20031;-80
2022/04/03 07:25:56;;;;;;;33.05;14.10;;;;;;;1.60;100.00;102060.59;4969394;28;20588;-80
2022/04/03 07:28:22;;;;;;;28.33;12.63;;;;;;;1.53;100.00;102068.88;4971702;28;20065;-81
2022/04/03 07:30:48;;;;;;;29.73;12.73;;;;;;;1.54;100.00;102070.63;4967409;28;20054;-80
2022/04/03 07:33:13;;;;;;;31.08;11.27;;;;;;;1.69;100.00;102073.00;4973579;28;20399;-79
2022/04/03 07:35:39;;;;;;;35.22;12.55;;;;;;;1.58;100.00;102070.53;4961377;28;20118;-80
2022/04/03 07:38:05;;;;;;;29.33;12.45;;;;;;;1.65;100.00;102068.59;4967915;28;20479;-80
2022/04/03 07:40:31;;;;;;;32.78;12.27;;;;;;;1.77;100.00;102067.41;4970264;28;20042;-80
2022/04/03 07:42:56;;;;;;;24.20;10.25;;;;;;;2.11;100.00;102077.44;4976953;28;20466;-80
2022/04/03 07:45:23;;;;;;;25.90;10.15;;;;;;;2.45;100.00;102068.50;4960789;28;20031;-80
2022/04/03 07:47:50;;;;;;;24.35;9.85;;;;;;;2.75;100.00;102067.69;4975286;28;20043;-80
2022/04/03 07:50:18;;;;;;;18.63;8.20;;;;;;;3.27;100.00;102061.75;4973647;28;20042;-80
2022/04/03 07:52:45;;;;;;;22.58;8.32;;;;;;;3.29;100.00;102070.69;4958873;28;20045;-80
2022/04/03 07:55:11;;;;;;;14.57;7.82;;;;;;;3.73;100.00;102065.78;4976710;28;20030;-79
2022/04/03 07:57:38;;;;;;;14.73;5.50;;;;;;;4.35;100.00;102070.09;4958011;28;20041;-80
2022/04/03 08:00:08;;;;;;;13.98;5.65;;;;;;;4.83;96.81;102073.88;4967918;28;20031;-80
2022/04/03 08:02:35;;;;;;;15.20;4.47;;;;;;;4.66;94.98;102073.63;4953722;29;20041;-80
2022/04/03 08:05:01;;;;;;;10.35;4.20;;;;;;;4.61;96.36;102068.34;4951317;28;20030;-80
2022/04/03 08:07:37;;;;;;;9.32;3.58;;;;;;;4.57;95.20;102072.97;4967238;28;20039;-80
2022/04/03 08:10:08;;;;;;;10.38;3.45;;;;;;;4.78;94.49;102068.63;4965069;28;20042;-79
2022/04/03 08:12:38;;;;;;;14.00;3.13;;;;;;;4.45;95.62;102080.66;4964498;28;20047;-79
2022/04/03 08:15:05;;;;;;;7.93;2.90;;;;;;;4.74;95.34;102075.13;4957929;28;20092;-79
2022/04/03 08:17:34;;;;;;;6.70;2.88;;;;;;;5.01;92.48;102074.19;4954808;28;20031;-80
2022/04/03 08:20:01;;;;;;;9.88;2.60;;;;;;;4.83;94.28;102084.75;4962335;28;20051;-80
2022/04/03 08:22:27;;;;;;;7.18;2.58;;;;;;;4.79;95.37;102085.81;4952140;29;20046;-80
2022/04/03 08:24:53;;;;;;;5.82;2.60;;;;;;;4.79;94.14;102081.25;4958573;28;20133;-79
2022/04/03 08:27:19;;;;;;;3.30;1.80;;;;;;;4.86;91.82;102092.78;4968737;28;20037;-80
2022/04/03 08:29:45;;;;;;;8.27;2.10;;;;;;;4.60;92.97;102085.53;4912646;28;1189128;-79
2022/04/03 08:32:11;;;;;;;6.50;1.98;;;;;;;4.48;95.55;102088.69;4971786;28;20053;-78
2022/04/03 08:34:36;;;;;;;5.97;2.20;;;;;;;4.58;94.30;102084.72;4963048;28;20042;-79
2022/04/03 08:37:03;;;;;;;2.92;1.75;;;;;;;4.65;92.06;102097.13;4991687;28;20112;-80
2022/04/03 08:39:28;;;;;;;2.30;1.48;;;;;;;5.15;88.96;102093.56;4952621;28;20034;-79
2022/04/03 08:41:56;;;;;;;3.63;1.70;;;;;;;5.86;85.38;102094.50;4989838;28;20034;-79
2022/04/03 08:44:22;;;;;;;3.05;1.45;;;;;;;5.75;84.05;102094.00;4964580;28;20455;-78
2022/04/03 08:46:49;;;;;;;8.82;2.42;;;;;;;5.88;84.34;102097.16;4996276;28;20084;-78
2022/04/03 08:49:19;;;;;;;3.35;1.88;;;;;;;6.27;84.00;102095.66;4956361;28;20386;-79
2022/04/03 08:51:46;;;;;;;8.90;2.00;;;;;;;6.61;81.76;102098.72;4971577;28;20065;-78
2022/04/03 08:54:13;;;;;;;2.40;1.80;;;;;;;6.73;80.64;102099.16;4996662;28;20045;-78
2022/04/03 08:56:39;;;;;;;1.92;1.50;;;;;;;6.81;81.49;102088.81;4979271;28;20041;-78
2022/04/03 08:59:05;;;;;;;3.58;1.88;;;;;;;7.12;79.83;102093.78;4959010;28;20038;-79
2022/04/03 09:01:30;;;;;;;2.53;1.50;;;;;;;7.36;78.35;102089.09;4959945;28;20033;-80
2022/04/03 09:03:56;;;;;;;7.25;1.88;;;;;;;7.46;78.95;102089.53;4956343;28;20081;-79
2022/04/03 09:06:24;;;;;;;4.85;1.80;;;;;;;8.20;76.60;102085.13;5000198;28;20038;-80
2022/04/03 09:08:50;;;;;;;1.67;1.35;;;;;;;7.42;74.92;102100.66;4974194;28;20050;-79
2022/04/03 09:11:16;;;;;;;3.90;1.20;;;;;;;7.47;77.02;102090.41;4963116;28;20041;-79
2022/04/03 09:13:43;;;;;;;5.75;1.70;;;;;;;7.60;75.27;102096.19;4987002;28;20046;-79
2022/04/03 09:16:10;;;;;;;5.47;1.60;;;;;;;7.68;74.84;102088.53;4968041;28;20053;-79
2022/04/03 09:18:44;;;;;;;5.88;2.13;;;;;;;7.82;74.83;102091.50;4975584;28;20427;-80
2022/04/03 09:21:18;;;;;;;2.20;1.17;;;;;;;7.96;73.31;102093.56;4986569;28;20098;-80
2022/04/03 09:23:59;;;;;;;4.32;1.40;;;;;;;7.45;73.77;102085.03;4976094;28;20042;-79
2022/04/03 09:26:25;;;;;;;6.70;1.50;;;;;;;7.39;74.46;102082.59;4964560;28;20030;-79
2022/04/03 09:29:05;;;;;;;2.25;1.20;;;;;;;8.25;73.06;102075.78;4990579;28;20046;-79
2022/04/03 09:31:30;;;;;;;2.25;1.30;;;;;;;8.95;69.31;102061.31;4959958;28;20105;-79
2022/04/03 09:34:04;;;;;;;2.67;1.33;;;;;;;7.91;72.57;102069.22;4972505;28;20110;-80
2022/04/03 09:36:33;;;;;;;2.53;1.20;;;;;;;8.24;70.35;102076.72;4972968;28;20398;-79
2022/04/03 09:39:14;;;;;;;5.30;1.30;;;;;;;8.02;69.80;102074.19;4965888;28;20049;-79
2022/04/03 09:42:00;;;;;;;6.95;1.45;;;;;;;8.91;67.52;102070.66;4977442;28;20046;-78
2022/04/03 09:44:33;;;;;;;4.70;1.20;;;;;;;8.53;69.86;102068.09;4974989;28;20035;-80
2022/04/03 09:47:17;;;;;;;5.05;0.95;;;;;;;8.48;69.62;102068.31;4968457;28;20051;-79
2022/04/03 09:49:44;;;;;;;5.75;1.45;;;;;;;8.69;68.72;102057.22;4972474;28;20031;-79
2022/04/03 09:52:11;;;;;;;4.57;1.13;;;;;;;8.78;67.56;102059.50;4995973;28;20045;-79
2022/04/03 09:54:38;;;;;;;4.35;1.25;;;;;;;9.06;68.23;102053.44;4970425;28;20034;-79
2022/04/03 09:57:25;;;;;;;3.67;1.30;;;;;;;8.73;66.33;102047.94;4972681;28;20037;-79
2022/04/03 09:59:53;;;;;;;3.80;1.20;;;;;;;8.74;67.60;102052.41;4970389;28;20518;-79
2022/04/03 10:02:23;;;;;;;1.95;1.30;;;;;;;8.74;65.62;102041.50;4967688;28;20076;-79
2022/04/03 10:04:53;;;;;;;8.07;1.42;;;;;;;9.45;62.83;102037.72;4971807;28;20064;-79
2022/04/03 10:07:20;;;;;;;5.55;1.05;;;;;;;9.07;65.47;102032.47;4958471;28;20109;-79
2022/04/03 10:09:47;;;;;;;9.07;1.40;;;;;;;9.34;66.22;102039.16;4961011;28;20238;-79
2022/04/03 10:12:21;;;;;;;3.53;1.13;;;;;;;10.06;63.52;102039.69;4970794;28;20463;-79
2022/04/03 10:14:49;;;;;;;6.38;1.33;;;;;;;9.55;63.63;102030.75;4962034;28;20050;-80
2022/04/03 10:17:17;;;;;;;3.63;1.23;;;;;;;9.30;65.43;102029.38;4972828;28;20063;-79
2022/04/03 10:19:43;;;;;;;5.03;1.10;;;;;;;9.73;65.14;102026.09;4987433;28;20041;-79
2022/04/03 10:22:31;;;;;;;4.40;1.10;;;;;;;9.56;62.91;102025.22;4991635;28;20117;-78
2022/04/03 10:25:02;;;;;;;3.42;1.20;;;;;;;9.21;65.14;102021.69;4963886;28;20090;-80
2022/04/03 10:27:32;;;;;;;4.25;1.30;;;;;;;8.39;67.47;102023.22;4991875;28;20037;-80
2022/04/03 10:29:59;;;;;;;5.13;1.35;;;;;;;7.84;68.84;102032.31;4994245;28;20039;-79
2022/04/03 10:32:27;;;;;;;4.18;1.23;;;;;;;7.84;68.43;102017.81;4968130;28;20042;-80
2022/04/03 10:34:57;;;;;;;6.00;1.40;;;;;;;8.24;69.23;102026.72;4972437;28;20431;-82
2022/04/03 10:37:27;;;;;;;5.63;1.40;;;;;;;10.24;62.23;102020.44;4964044;28;20114;-80
2022/04/03 10:39:54;;;;;;;4.03;1.45;;;;;;;9.56;64.81;102013.41;4971628;28;20121;-80
2022/04/03 10:42:25;;;;;;;4.75;1.55;;;;;;;9.67;66.49;102018.25;4992341;28;20508;-82
2022/04/03 10:45:12;;;;;;;2.42;1.20;;;;;;;9.20;63.93;102012.59;4972696;28;20495;-80
2022/04/03 10:47:46;;;;;;;3.53;1.40;;;;;;;8.19;68.16;102012.44;4997485;28;20035;-80
2022/04/03 10:50:12;;;;;;;5.97;1.20;;;;;;;7.49;70.68;102018.56;4957240;28;20030;-80
2022/04/03 10:52:38;;;;;;;3.90;1.23;;;;;;;7.93;70.30;102016.47;4988747;28;20039;-81
2022/04/03 10:55:21;;;;;;;3.05;1.30;;;;;;;7.96;66.75;102009.00;4959709;28;20034;-81
2022/04/03 10:57:54;;;;;;;3.47;1.02;;;;;;;7.86;71.04;102005.84;4960053;28;20050;-80
2022/04/03 11:00:20;;;;;;;3.72;1.52;;;;;;;7.97;71.55;102002.63;4945719;28;20049;-81
2022/04/03 11:02:51;;;;;;;3.22;1.40;;;;;;;7.79;72.16;102003.50;4963888;28;20046;-80
2022/04/03 11:05:26;;;;;;;8.27;1.80;;;;;;;7.84;71.54;101996.00;4972767;28;20042;-80
2022/04/03 11:08:18;;;;;;;2.65;1.10;;;;;;;7.65;69.31;101991.44;4981370;28;20041;-80
2022/04/03 11:10:56;;;;;;;2.55;1.00;;;;;;;7.65;70.02;101990.56;4992721;28;20044;-79
2022/04/03 11:13:34;;;;;;;5.13;1.48;;;;;;;7.87;70.58;101994.00;4980492;28;20041;-79
2022/04/03 11:16:04;;;;;;;6.28;1.30;;;;;;;8.46;70.18;101980.13;4970974;28;20510;-80
2022/04/03 11:18:49;;;;;;;2.83;1.20;;;;;;;8.25;69.09;101984.84;4973792;28;20035;-80
2022/04/03 11:21:26;;;;;;;4.93;1.35;;;;;;;8.20;69.01;101985.09;4965034;28;20065;-78